Flight Track Log - Related Links

Times and Time Zones

All times are in EDT time to prevent confusion due to time zone crossing. See the ASQ4421 flight status page for this flight to view local times or setup timezone preferences in your user account.

Time Position Orientation Groundspeed Altitude Reporting Facility
EDT Latitude Longitude Course Direction KTS MPH feet Rate Location/Type
Thu 06:17:15 AM 45.3167 -75.6000 252° West 60 69 800  Level Toronto Center
Thu 06:17:46 AM 45.3167 -75.6167 270° West 160 184 1,900 2,176 Climbing Montreal Center
Thu 06:18:46 AM 45.3500 -75.5667 47° Northeast 200 230 4,100 2,300 Climbing Montreal Center
Thu 06:19:46 AM 45.4000 -75.5833 347° North 230 265 6,500 2,650 Climbing Montreal Center
Thu 06:20:00 AM 45.2337 -76.0148 254° West  Level FlightAware Approximate
Thu 06:20:46 AM 45.4000 -75.6833 270° West 240 276 9,400  Level Montreal Center
Thu 06:21:00 AM 45.2026 -76.1294 249° West  Level FlightAware Approximate
Thu 06:21:46 AM 45.4167 -75.7833 283° West 270 311 11,400  Level Montreal Center
Thu 06:22:00 AM 45.1627 -76.2338 252° West  Level FlightAware Approximate
Thu 06:22:46 AM 45.4167 -75.9000 270° West 300 345 13,300  Level Montreal Center
Thu 06:23:46 AM 45.4000 -76.0333 260° West 320 368 15,000 1,650 Climbing Montreal Center
Thu 06:24:46 AM 45.4000 -76.1667 270° West 340 391 16,600 1,400 Climbing Montreal Center
Thu 06:25:46 AM 45.3667 -76.3000 250° West 360 414 17,800 1,350 Climbing Montreal Center
Thu 06:26:46 AM 45.3333 -76.4500 253° West 370 426 19,300 1,600 Climbing Montreal Center
Thu 06:27:46 AM 45.3000 -76.5833 250° West 370 426 21,000 1,850 Climbing Montreal Center
Thu 06:28:46 AM 45.2667 -76.7333 253° West 370 426 23,000 1,850 Climbing Montreal Center
Thu 06:29:46 AM 45.2500 -76.8667 260° West 360 414 24,700 1,700 Climbing Montreal Center
Thu 06:30:46 AM 45.2167 -77.0167 253° West 360 414 26,400 1,700 Climbing Montreal Center
Thu 06:31:46 AM 45.1833 -77.1333 248° West 360 414 28,100 1,700 Climbing Montreal Center
Thu 06:32:46 AM 45.1500 -77.2500 248° West 350 403 29,800 1,650 Climbing Montreal Center
Thu 06:33:46 AM 45.1167 -77.4000 253° West 340 391 31,400 1,100 Climbing Montreal Center
Thu 06:34:46 AM 45.1000 -77.5333 260° West 350 403 32,000 300 Climbing Montreal Center
Thu 06:35:46 AM 45.0667 -77.6667 251° West 370 426 32,000 600 Level Montreal Center
Thu 06:36:46 AM 45.0333 -77.8000 251° West 370 426 33,200 1,250 Climbing Montreal Center
Thu 06:37:46 AM 44.9833 -77.9333 242° Southwest 370 426 34,500 1,100 Climbing Montreal Center
Thu 06:38:46 AM 44.9500 -78.0667 251° West 370 426 35,400 750 Climbing Montreal Center
Thu 06:39:46 AM 44.9167 -78.2167 253° West 360 414 36,000 300 Climbing Montreal Center
Thu 06:40:46 AM 44.8833 -78.3500 251° West 380 437 36,000  Level Montreal Center
Thu 06:41:46 AM 44.8500 -78.4667 248° West 360 414 36,000  Level Montreal Center
Thu 06:42:46 AM 44.8167 -78.6167 253° West 350 403 36,000  Level Montreal Center
Thu 06:43:46 AM 44.7833 -78.7500 251° West 360 414 36,000  Level Montreal Center
Thu 06:44:46 AM 44.7333 -78.8667 239° Southwest 360 414 36,000  Level Montreal Center
Thu 06:45:46 AM 44.7000 -79.0000 251° West 370 426 36,000  Level Montreal Center
Thu 06:46:46 AM 44.6500 -79.1500 245° Southwest 370 426 36,000  Level Montreal Center
Thu 06:47:46 AM 44.6000 -79.2667 239° Southwest 370 426 36,000  Level Montreal Center
Thu 06:48:46 AM 44.5500 -79.3667 235° Southwest 360 414 36,000  Level Montreal Center
Thu 06:49:46 AM 44.5167 -79.5167 253° West 360 414 36,000  Level Montreal Center
Thu 06:51:15 AM 44.4500 -79.6500 235° Southwest 360 414 36,000  Level Toronto Center
Thu 06:52:15 AM 44.4000 -79.8000 245° Southwest 360 414 36,000  Level Toronto Center
Thu 06:53:15 AM 44.3500 -79.9167 239° Southwest 370 426 36,000  Level Toronto Center
Thu 06:54:15 AM 44.3000 -80.0333 239° Southwest 370 426 36,000  Level Toronto Center
Thu 06:55:15 AM 44.2500 -80.1667 242° Southwest 380 437 36,000  Level Toronto Center
Thu 06:56:15 AM 44.2000 -80.3000 242° Southwest 380 437 36,000  Level Toronto Center
Thu 06:57:15 AM 44.1500 -80.4500 245° Southwest 390 449 36,000  Level Toronto Center
Thu 06:58:15 AM 44.1000 -80.5667 239° Southwest 390 449 36,000  Level Toronto Center
Thu 06:59:15 AM 44.0500 -80.7167 245° Southwest 390 449 36,000  Level Toronto Center
Thu 07:00:15 AM 43.9833 -80.8333 232° Southwest 390 449 36,000  Level Toronto Center
Thu 07:01:15 AM 43.9333 -80.9833 245° Southwest 380 437 36,000  Level Toronto Center
Thu 07:02:15 AM 43.8833 -81.0833 235° Southwest 370 426 36,000  Level Toronto Center
Thu 07:03:15 AM 43.8500 -81.2333 253° West 370 426 36,000  Level Toronto Center
Thu 07:04:15 AM 43.8000 -81.3500 239° Southwest 360 414 36,000  Level Toronto Center
Thu 07:05:15 AM 43.7500 -81.4500 235° Southwest 360 414 36,000  Level Toronto Center
Thu 07:06:15 AM 43.7000 -81.6000 245° Southwest 370 426 36,000  Level Toronto Center
Thu 07:07:15 AM 43.6667 -81.7333 251° West 370 426 36,000  Level Toronto Center
Thu 07:08:15 AM 43.6167 -81.8500 239° Southwest 390 449 36,000  Level Toronto Center
Thu 07:09:15 AM 43.5500 -82.0000 239° Southwest 390 449 36,000  Level Toronto Center
Thu 07:10:18 AM 43.5292 -82.1464 259° West 390 449 36,000  Level Cleveland Center
Thu 07:11:18 AM 43.4833 -82.2797 245° Southwest 390 449 36,000  Level Cleveland Center
Thu 07:12:18 AM 43.4356 -82.4156 244° Southwest 390 449 36,000  Level Cleveland Center
Thu 07:13:18 AM 43.3875 -82.5542 245° Southwest 400 460 36,000  Level Cleveland Center
Thu 07:14:18 AM 43.3347 -82.7039 244° Southwest 411 473 36,000  Level Cleveland Center
Thu 07:15:18 AM 43.2842 -82.8503 245° Southwest 422 486 36,000  Level Cleveland Center
Thu 07:16:18 AM 43.2375 -82.9828 244° Southwest 434 499 36,000  Level Cleveland Center
Thu 07:17:18 AM 43.1867 -83.1286 244° Southwest 434 499 36,000  Level Cleveland Center
Thu 07:18:18 AM 43.1331 -83.2772 244° Southwest 434 499 36,000  Level Cleveland Center
Thu 07:19:18 AM 43.0817 -83.4231 244° Southwest 434 499 36,000  Level Cleveland Center
Thu 07:20:18 AM 43.0322 -83.5683 245° Southwest 434 499 36,000  Level Cleveland Center
Thu 07:21:18 AM 42.9783 -83.7133 243° Southwest 434 499 36,000  Level Cleveland Center
Thu 07:22:18 AM 42.9575 -83.8656 259° West 434 499 36,000  Level Cleveland Center
Thu 07:23:18 AM 42.9383 -84.0233 261° West 420 483 36,000  Level Cleveland Center
Thu 07:24:18 AM 42.9228 -84.1842 263° West 420 483 36,000 -650 Level Cleveland Center
Thu 07:25:18 AM 42.9050 -84.3533 262° West 426 490 34,700 -1,850 Descending Cleveland Center
Thu 07:26:18 AM 42.8914 -84.5111 263° West 420 483 32,300 -1,149 Descending Cleveland Center
Thu 07:27:39 AM 42.8733 -84.6939 262° West 421 484 32,000 -127 Descending Chicago Center
Thu 07:28:40 AM 42.8531 -84.8847 262° West 424 488 32,000  Level Chicago Center
Thu 07:29:42 AM 42.8356 -85.0453 262° West 428 493 32,000  Level Chicago Center
Thu 07:30:43 AM 42.8189 -85.2044 262° West 426 490 32,000  Level Chicago Center
Thu 07:31:44 AM 42.8014 -85.3669 262° West 432 497 32,000 -537 Level Chicago Center
Thu 07:32:46 AM 42.7814 -85.5292 261° West 434 499 30,900 -1,854 Descending Chicago Center
Thu 07:33:47 AM 42.7514 -85.6939 256° West 443 510 28,200 -2,488 Descending Chicago Center
Thu 07:34:49 AM 42.7214 -85.8603 256° West 448 516 25,800 -2,293 Descending Chicago Center
Thu 07:35:50 AM 42.6917 -86.0206 256° West 438 504 23,500 -2,244 Descending Chicago Center
Thu 07:36:52 AM 42.6631 -86.1778 256° West 429 494 21,200 -1,707 Descending Chicago Center
Thu 07:37:53 AM 42.6344 -86.3272 255° West 411 473 20,000 -984 Descending Chicago Center
Thu 07:38:54 AM 42.6075 -86.4722 256° West 397 457 19,200 -1,756 Descending Chicago Center
Thu 07:39:56 AM 42.5744 -86.6489 256° West 401 461 16,400 -2,537 Descending Chicago Center
Thu 07:40:57 AM 42.5453 -86.7906 254° West 391 450 14,000 -2,164 Descending Chicago Center
Thu 07:41:58 AM 42.5072 -86.9242 249° West 382 440 12,000 -1,805 Descending Chicago Center
Thu 07:43:00 AM 42.4706 -87.0550 249° West 374 430 10,300 -1,024 Descending Chicago Center
Thu 07:44:01 AM 42.4356 -87.1831 250° West 365 420 9,900 -634 Descending Chicago Center
Thu 07:45:03 AM 42.4072 -87.2869 250° West 301 346 9,000 -1,073 Descending Chicago Center
Thu 07:46:04 AM 42.3675 -87.4036 245° Southwest 303 349 7,700 -976 Descending Chicago Center
Thu 07:47:06 AM 42.3319 -87.5008 244° Southwest 293 337 7,000 -341 Descending Chicago Center
Thu 07:48:07 AM 42.2919 -87.5744 234° Southwest 257 296 7,000 -146 Level Chicago Center
Thu 07:49:09 AM 42.2383 -87.6278 216° Southwest 243 280 6,700 -484 Descending Chicago Center
Thu 07:50:11 AM 42.1928 -87.6828 222° Southwest 223 257 6,000 -829 Descending Chicago Center
Thu 07:51:12 AM 42.1483 -87.7311 219° Southwest 206 237 5,000 -1,220 Descending Chicago Center
Thu 07:52:14 AM 42.0967 -87.7889 220° Southwest 203 234 3,500 -1,415 Descending Chicago Center
Thu 07:53:15 AM 42.0553 -87.8358 220° Southwest 198 228 2,100 -1,073 Descending Chicago Center
Thu 07:54:17 AM 42.0244 -87.8683 218° Southwest 166 191 1,300 -677 Descending Chicago Center
Thu 07:55:19 AM 41.9914 -87.9036 218° Southwest 152 175 700 -581 Descending Chicago Center

Login

Don't have an account? Register now (free) for customized features, flight alerts, and more!